createdAt,value
2024-05-09T00:01:14.106Z,9.33
2024-05-09T00:03:47.347Z,8.79
2024-05-09T00:06:18.332Z,9.06
2024-05-09T00:08:49.255Z,9.59
2024-05-09T00:11:23.609Z,9.83
2024-05-09T00:13:54.752Z,9.61
2024-05-09T00:16:25.807Z,8.79
2024-05-09T00:18:56.840Z,8.05
2024-05-09T00:21:27.810Z,8.93
2024-05-09T00:24:01.073Z,8.65
2024-05-09T00:26:32.097Z,7.73
2024-05-09T00:29:03.139Z,8.35
2024-05-09T00:31:36.459Z,8.70
2024-05-09T00:34:07.538Z,8.78
2024-05-09T00:36:38.497Z,8.73
2024-05-09T00:39:09.478Z,9.19
2024-05-09T00:41:40.490Z,9.04
2024-05-09T00:44:11.546Z,8.83
2024-05-09T00:46:42.788Z,8.58
2024-05-09T00:49:15.212Z,9.82
2024-05-09T00:51:46.190Z,10.41
2024-05-09T00:54:19.816Z,9.99
2024-05-09T00:56:52.450Z,10.06
2024-05-09T00:59:23.659Z,9.47
2024-05-09T01:01:54.778Z,9.79
2024-05-09T01:04:28.458Z,10.22
2024-05-09T01:06:59.458Z,10.69
2024-05-09T01:09:30.487Z,10.37
2024-05-09T01:12:03.657Z,9.83
2024-05-09T01:14:37.240Z,9.77
2024-05-09T01:17:08.830Z,9.47
2024-05-09T01:19:42.262Z,9.87
2024-05-09T01:22:16.259Z,10.46
2024-05-09T01:24:49.624Z,9.05
2024-05-09T01:27:20.805Z,9.53
2024-05-09T01:29:51.799Z,9.83
2024-05-09T01:32:22.975Z,9.49
2024-05-09T01:34:54.140Z,9.25
2024-05-09T01:37:27.569Z,9.67
2024-05-09T01:40:01.875Z,10.11
2024-05-09T01:42:37.910Z,9.81
2024-05-09T01:45:12.265Z,8.67
2024-05-09T01:47:48.704Z,8.35
2024-05-09T01:50:28.985Z,9.57
2024-05-09T01:53:10.264Z,8.60
2024-05-09T01:55:42.183Z,8.67
2024-05-09T01:58:13.156Z,9.05
2024-05-09T02:00:46.412Z,9.13
2024-05-09T02:03:20.051Z,8.63
2024-05-09T02:05:51.596Z,9.46
2024-05-09T02:08:25.916Z,8.75
2024-05-09T02:10:56.918Z,9.95
2024-05-09T02:13:27.974Z,10.17
2024-05-09T02:16:03.977Z,9.49
2024-05-09T02:18:35.071Z,9.25
2024-05-09T02:21:06.946Z,9.31
2024-05-09T02:23:37.995Z,8.40
2024-05-09T02:26:09.143Z,8.65
2024-05-09T02:28:44.309Z,9.99
2024-05-09T02:31:16.274Z,9.25
2024-05-09T02:33:47.705Z,9.09
2024-05-09T02:36:20.141Z,10.17
2024-05-09T02:38:53.477Z,8.32
2024-05-09T02:41:27.036Z,9.03
2024-05-09T02:44:00.123Z,9.03
2024-05-09T02:46:35.384Z,9.45
2024-05-09T02:49:06.490Z,9.56
2024-05-09T02:51:37.528Z,8.55
2024-05-09T02:54:12.608Z,8.83
2024-05-09T02:56:46.053Z,8.80
2024-05-09T02:59:17.010Z,8.94
2024-05-09T03:01:53.929Z,9.03
2024-05-09T03:04:25.195Z,9.47
2024-05-09T03:06:58.417Z,9.00
2024-05-09T03:09:29.371Z,9.62
2024-05-09T03:12:00.413Z,9.08
2024-05-09T03:14:34.415Z,8.89
2024-05-09T03:17:08.233Z,8.93
2024-05-09T03:19:39.285Z,9.15
2024-05-09T03:22:12.422Z,9.17
2024-05-09T03:24:46.534Z,9.12
2024-05-09T03:27:19.978Z,9.42
2024-05-09T03:29:53.990Z,9.23
2024-05-09T03:32:25.025Z,10.51
2024-05-09T03:34:58.368Z,9.18
2024-05-09T03:37:29.330Z,9.09
2024-05-09T03:40:02.957Z,10.15
2024-05-09T03:42:33.996Z,9.31
2024-05-09T03:45:08.361Z,9.34
2024-05-09T03:47:39.488Z,9.45
2024-05-09T03:50:21.966Z,10.07
2024-05-09T03:52:56.908Z,9.81
2024-05-09T03:55:30.905Z,9.67
2024-05-09T03:58:01.901Z,9.60
2024-05-09T04:00:38.898Z,10.08
2024-05-09T04:03:13.854Z,9.87
2024-05-09T04:05:48.062Z,11.14
2024-05-09T04:08:22.010Z,10.87
2024-05-09T04:10:55.654Z,10.20
2024-05-09T04:13:28.944Z,11.27
2024-05-09T04:16:02.418Z,11.99
2024-05-09T04:18:33.421Z,11.73
2024-05-09T04:21:10.443Z,12.15
2024-05-09T04:23:44.301Z,12.75
2024-05-09T04:26:17.394Z,12.55
2024-05-09T04:28:50.788Z,12.12
2024-05-09T04:31:21.849Z,12.64
2024-05-09T04:33:55.526Z,12.03
2024-05-09T04:36:28.673Z,12.09
2024-05-09T04:39:02.656Z,11.82
2024-05-09T04:41:36.324Z,12.05
2024-05-09T04:44:07.288Z,11.19
2024-05-09T04:46:39.768Z,12.02
2024-05-09T04:49:10.744Z,11.93
2024-05-09T04:51:41.845Z,11.05
2024-05-09T04:54:26.118Z,10.91
2024-05-09T04:57:07.058Z,10.32
2024-05-09T04:59:38.084Z,11.61
2024-05-09T05:02:11.377Z,10.80
2024-05-09T05:04:42.573Z,10.21
2024-05-09T05:07:14.788Z,10.73
2024-05-09T05:09:46.766Z,11.37
2024-05-09T05:12:36.706Z,11.05
2024-05-09T05:15:07.883Z,11.27
2024-05-09T05:17:41.782Z,10.43
2024-05-09T05:20:24.347Z,10.51
2024-05-09T05:23:02.017Z,11.74
2024-05-09T05:25:33.104Z,12.09
2024-05-09T05:28:06.237Z,12.82
2024-05-09T05:30:40.467Z,12.29
2024-05-09T05:33:20.279Z,12.40
2024-05-09T05:35:51.524Z,11.96
2024-05-09T05:38:26.076Z,13.91
2024-05-09T05:41:00.995Z,13.47
2024-05-09T05:43:32.081Z,14.20
2024-05-09T05:46:06.041Z,14.49
2024-05-09T05:48:39.548Z,13.67
2024-05-09T05:51:10.749Z,14.33
2024-05-09T05:53:44.714Z,15.24
2024-05-09T05:56:15.805Z,14.07
2024-05-09T05:58:52.264Z,14.91
2024-05-09T06:01:23.273Z,16.97
2024-05-09T06:03:56.703Z,17.55
2024-05-09T06:06:27.891Z,17.57
2024-05-09T06:09:01.705Z,17.23
2024-05-09T06:11:35.186Z,18.74
2024-05-09T06:14:06.258Z,20.67
2024-05-09T06:16:39.955Z,20.89
2024-05-09T06:19:14.133Z,19.87
2024-05-09T06:21:45.274Z,18.86
2024-05-09T06:24:26.871Z,19.10
2024-05-09T06:27:01.222Z,20.02
2024-05-09T06:29:35.845Z,18.40
2024-05-09T06:32:09.328Z,18.36
2024-05-09T06:34:46.497Z,20.25
2024-05-09T06:37:20.546Z,18.87
2024-05-09T06:39:51.545Z,19.43
2024-05-09T06:42:22.595Z,19.49
2024-05-09T06:45:15.955Z,20.71
2024-05-09T06:47:49.918Z,20.79
2024-05-09T06:50:24.575Z,20.42
2024-05-09T06:53:03.739Z,19.89
2024-05-09T06:55:36.267Z,18.96
2024-05-09T06:58:11.191Z,20.02
2024-05-09T07:00:46.763Z,18.71
2024-05-09T07:03:19.191Z,18.75
2024-05-09T07:05:55.103Z,17.64
2024-05-09T07:08:31.078Z,18.32
2024-05-09T07:11:04.609Z,18.48
2024-05-09T07:13:38.416Z,18.99
2024-05-09T07:16:09.457Z,17.66
2024-05-09T07:18:40.930Z,18.02
2024-05-09T07:21:12.109Z,17.23
2024-05-09T07:23:45.393Z,16.97
2024-05-09T07:26:18.310Z,17.03
2024-05-09T07:28:49.368Z,17.43
2024-05-09T07:31:20.399Z,18.01
2024-05-09T07:33:51.520Z,17.80
2024-05-09T07:36:23.493Z,18.54
2024-05-09T07:38:54.412Z,17.74
2024-05-09T07:41:25.397Z,16.95
2024-05-09T07:43:56.472Z,17.65
2024-05-09T07:47:36.496Z,17.50
2024-05-09T07:51:31.617Z,16.55
2024-05-09T07:53:29.337Z,15.79
2024-05-09T07:55:04.800Z,15.35
2024-05-09T07:57:35.966Z,14.39
2024-05-09T08:00:08.327Z,16.09
2024-05-09T08:02:42.559Z,14.25
2024-05-09T08:05:13.667Z,14.09
2024-05-09T08:07:46.954Z,13.10
2024-05-09T08:10:22.178Z,13.45
2024-05-09T08:12:58.027Z,13.21
2024-05-09T08:15:29.795Z,13.98
2024-05-09T08:18:00.940Z,14.31
2024-05-09T08:20:35.216Z,13.08
2024-05-09T08:23:06.650Z,12.61
2024-05-09T08:25:39.785Z,13.26
2024-05-09T08:28:10.806Z,14.25
2024-05-09T08:30:41.947Z,13.12
2024-05-09T08:33:12.977Z,12.61
2024-05-09T08:35:44.035Z,12.59
2024-05-09T08:38:15.137Z,13.87
2024-05-09T08:40:49.747Z,14.15
2024-05-09T08:43:21.927Z,14.21
2024-05-09T08:45:53.015Z,13.68
2024-05-09T08:48:25.358Z,15.09
2024-05-09T08:50:59.287Z,15.17
2024-05-09T08:53:30.410Z,12.93
2024-05-09T08:56:03.773Z,15.09
2024-05-09T08:58:34.977Z,14.04
2024-05-09T09:01:09.380Z,13.51
2024-05-09T09:03:40.658Z,13.54
2024-05-09T09:06:15.120Z,14.27
2024-05-09T09:08:46.698Z,14.43
2024-05-09T09:11:17.682Z,14.21
2024-05-09T09:13:48.622Z,14.23
2024-05-09T09:16:19.786Z,13.97
2024-05-09T09:18:51.182Z,14.81
2024-05-09T09:21:22.208Z,13.73
2024-05-09T09:23:53.116Z,13.69
2024-05-09T09:26:24.752Z,12.31
2024-05-09T09:28:55.773Z,13.90
2024-05-09T09:31:26.756Z,14.04
2024-05-09T09:34:00.156Z,13.71
2024-05-09T09:36:33.008Z,12.63
2024-05-09T09:39:04.984Z,12.17
2024-05-09T09:41:39.234Z,12.49
2024-05-09T09:44:11.389Z,13.12
2024-05-09T09:46:43.001Z,11.51
2024-05-09T09:49:15.398Z,13.00
2024-05-09T09:51:48.220Z,11.56
2024-05-09T09:54:20.474Z,12.69
2024-05-09T09:56:53.562Z,12.29
2024-05-09T09:59:24.877Z,12.27
2024-05-09T10:01:56.042Z,11.67
2024-05-09T10:04:27.468Z,11.39
2024-05-09T10:07:05.344Z,10.89
2024-05-09T10:09:37.096Z,10.93
2024-05-09T10:12:18.125Z,10.87
2024-05-09T10:14:52.822Z,11.51
2024-05-09T10:17:23.862Z,10.19
2024-05-09T10:20:14.400Z,10.21
2024-05-09T10:22:52.098Z,9.49
2024-05-09T10:25:23.742Z,10.25
2024-05-09T10:27:57.678Z,10.19
2024-05-09T10:30:34.258Z,9.85
2024-05-09T10:33:12.196Z,10.67
2024-05-09T10:35:53.492Z,10.45
2024-05-09T10:38:24.599Z,9.33
2024-05-09T10:40:59.201Z,10.36
2024-05-09T10:43:30.497Z,10.19
2024-05-09T10:46:01.563Z,10.43
2024-05-09T10:48:33.010Z,9.66
2024-05-09T10:51:04.254Z,9.85
2024-05-09T10:53:42.764Z,9.80
2024-05-09T10:56:15.892Z,12.65
2024-05-09T10:58:48.118Z,11.83
2024-05-09T11:01:19.152Z,11.91
2024-05-09T11:03:51.096Z,12.81
2024-05-09T11:06:22.312Z,11.93
2024-05-09T11:08:53.940Z,12.45
2024-05-09T11:11:25.140Z,12.63
2024-05-09T11:13:56.089Z,12.15
2024-05-09T11:16:27.083Z,10.58
2024-05-09T11:18:59.529Z,10.55
2024-05-09T11:21:30.851Z,11.31
2024-05-09T11:24:01.789Z,11.78
2024-05-09T11:26:34.073Z,10.89
2024-05-09T11:29:04.979Z,10.91
2024-05-09T11:31:37.216Z,10.61
2024-05-09T11:34:08.260Z,11.12
2024-05-09T11:36:39.294Z,13.38
2024-05-09T11:39:10.562Z,13.26
2024-05-09T11:41:41.550Z,14.57
2024-05-09T11:44:13.144Z,14.00
2024-05-09T11:46:45.063Z,14.01
2024-05-09T11:49:16.103Z,14.91
2024-05-09T11:51:47.110Z,14.35
2024-05-09T11:54:18.379Z,14.08
2024-05-09T11:56:51.483Z,13.33
2024-05-09T11:59:22.423Z,13.87
2024-05-09T12:01:53.537Z,12.49
2024-05-09T12:04:25.701Z,13.44
2024-05-09T12:06:56.833Z,14.36
2024-05-09T12:09:27.850Z,13.75
2024-05-09T12:11:58.789Z,13.65
2024-05-09T12:14:29.790Z,13.45
2024-05-09T12:17:01.207Z,14.19
2024-05-09T12:19:32.371Z,12.88
2024-05-09T12:22:05.144Z,13.41
2024-05-09T12:24:36.195Z,14.31
2024-05-09T12:27:07.274Z,12.49
2024-05-09T12:29:38.967Z,12.81
2024-05-09T12:32:10.116Z,13.14
2024-05-09T12:34:41.139Z,13.67
2024-05-09T12:37:12.358Z,13.39
2024-05-09T12:39:43.366Z,13.51
2024-05-09T12:42:26.309Z,13.62
2024-05-09T12:44:59.014Z,13.41
2024-05-09T12:47:30.090Z,13.38
2024-05-09T12:50:01.269Z,14.07
2024-05-09T12:52:32.255Z,14.01
2024-05-09T12:55:03.233Z,13.79
2024-05-09T12:57:34.436Z,14.02
2024-05-09T13:00:05.863Z,14.60
2024-05-09T13:02:38.490Z,14.21
2024-05-09T13:05:10.435Z,14.41
2024-05-09T13:07:42.268Z,11.75
2024-05-09T13:10:19.753Z,14.31
2024-05-09T13:12:54.158Z,14.58
2024-05-09T13:15:25.128Z,14.10
2024-05-09T13:17:58.283Z,13.25
2024-05-09T13:20:34.088Z,13.84
2024-05-09T13:23:08.477Z,14.45
2024-05-09T13:25:39.955Z,15.24
2024-05-09T13:28:11.079Z,15.43
2024-05-09T13:30:42.588Z,15.66
2024-05-09T13:33:14.464Z,13.87
2024-05-09T13:35:49.637Z,15.85
2024-05-09T13:38:22.539Z,15.20
2024-05-09T13:40:53.599Z,14.63
2024-05-09T13:43:25.437Z,14.00
2024-05-09T13:45:57.949Z,13.06
2024-05-09T13:48:29.212Z,14.93
2024-05-09T13:51:00.337Z,14.56
2024-05-09T13:53:31.295Z,14.17
2024-05-09T13:56:02.300Z,13.87
2024-05-09T13:58:33.276Z,14.01
2024-05-09T14:01:04.406Z,13.41
2024-05-09T14:03:35.592Z,13.71
2024-05-09T14:06:09.446Z,14.26
2024-05-09T14:08:42.190Z,14.51
2024-05-09T14:11:13.184Z,14.01
2024-05-09T14:13:44.232Z,15.37
2024-05-09T14:16:15.691Z,14.96
2024-05-09T14:18:46.672Z,14.73
2024-05-09T14:21:17.665Z,15.71
2024-05-09T14:23:48.629Z,15.14
2024-05-09T14:26:19.895Z,14.54
2024-05-09T14:28:50.917Z,15.28
2024-05-09T14:31:22.961Z,16.29
2024-05-09T14:33:54.123Z,16.29
2024-05-09T14:36:25.234Z,15.57
2024-05-09T14:38:56.239Z,15.39
2024-05-09T14:41:27.157Z,14.60
2024-05-09T14:43:58.137Z,16.04
2024-05-09T14:46:29.313Z,15.77
2024-05-09T14:49:00.548Z,14.83
2024-05-09T14:51:31.613Z,16.21
2024-05-09T14:54:02.531Z,15.97
2024-05-09T14:56:33.710Z,13.73
2024-05-09T14:59:04.638Z,14.66
2024-05-09T15:01:35.636Z,14.34
2024-05-09T15:04:06.803Z,15.01
2024-05-09T15:06:40.974Z,15.09
2024-05-09T15:09:11.918Z,14.73
2024-05-09T15:11:43.908Z,13.93
2024-05-09T15:14:15.813Z,13.69
2024-05-09T15:16:48.512Z,14.21
2024-05-09T15:19:19.759Z,13.69
2024-05-09T15:21:50.849Z,12.08
2024-05-09T15:24:21.837Z,14.07
2024-05-09T15:26:52.769Z,14.93
2024-05-09T15:29:23.751Z,15.15
2024-05-09T15:31:54.684Z,14.06
2024-05-09T15:34:25.686Z,13.87
2024-05-09T15:36:56.764Z,13.95
2024-05-09T15:39:30.236Z,14.51
2024-05-09T15:42:01.287Z,14.59
2024-05-09T15:44:32.314Z,12.67
2024-05-09T15:47:03.234Z,12.17
2024-05-09T15:49:34.506Z,10.63
2024-05-09T15:52:05.597Z,12.48
2024-05-09T15:54:36.737Z,13.05
2024-05-09T15:57:08.409Z,14.33
2024-05-09T15:59:39.868Z,14.07
2024-05-09T16:02:11.551Z,14.82
2024-05-09T16:04:43.002Z,15.31
2024-05-09T16:07:14.270Z,14.45
2024-05-09T16:09:45.419Z,15.29
2024-05-09T16:12:16.362Z,14.71
2024-05-09T16:14:47.421Z,15.37
2024-05-09T16:17:18.708Z,14.99
2024-05-09T16:19:50.056Z,15.91
2024-05-09T16:22:21.075Z,16.33
2024-05-09T16:24:52.223Z,16.21
2024-05-09T16:27:23.176Z,15.65
2024-05-09T16:29:58.000Z,16.12
2024-05-09T16:32:28.972Z,16.49
2024-05-09T16:35:00.096Z,16.81
2024-05-09T16:37:31.125Z,16.77
2024-05-09T16:40:02.128Z,18.43
2024-05-09T16:42:33.376Z,16.49
2024-05-09T16:45:04.505Z,17.11
2024-05-09T16:47:35.774Z,18.15
2024-05-09T16:50:08.573Z,16.99
2024-05-09T16:52:39.726Z,18.03
2024-05-09T16:55:10.854Z,17.62
2024-05-09T16:57:42.324Z,19.55
2024-05-09T17:00:21.928Z,18.35
2024-05-09T17:03:01.138Z,20.76
2024-05-09T17:05:32.333Z,20.37
2024-05-09T17:08:03.442Z,20.64
2024-05-09T17:10:35.944Z,20.31
2024-05-09T17:13:08.288Z,18.78
2024-05-09T17:15:39.524Z,21.34
2024-05-09T17:18:11.096Z,22.41
2024-05-09T17:20:42.098Z,22.23
2024-05-09T17:23:14.087Z,21.78
2024-05-09T17:25:45.632Z,22.05
2024-05-09T17:28:16.808Z,21.63
2024-05-09T17:30:48.509Z,21.23
2024-05-09T17:33:19.712Z,21.58
2024-05-09T17:35:51.790Z,20.31
2024-05-09T17:38:23.678Z,21.89
2024-05-09T17:40:54.886Z,19.59
2024-05-09T17:43:26.027Z,20.14
2024-05-09T17:45:57.024Z,22.35
2024-05-09T17:48:28.197Z,22.01
2024-05-09T17:50:59.560Z,21.71
2024-05-09T17:53:30.469Z,23.01
2024-05-09T17:56:02.209Z,22.34
2024-05-09T17:58:33.223Z,22.45
2024-05-09T18:01:04.417Z,23.47
2024-05-09T18:03:35.621Z,23.56
2024-05-09T18:06:06.848Z,25.78
2024-05-09T18:08:37.889Z,25.50
2024-05-09T18:11:09.442Z,25.29
2024-05-09T18:13:40.421Z,23.31
2024-05-09T18:16:11.455Z,24.39
2024-05-09T18:18:42.819Z,23.99
2024-05-09T18:21:13.948Z,25.17
2024-05-09T18:23:44.907Z,23.19
2024-05-09T18:26:15.946Z,24.78
2024-05-09T18:28:47.306Z,26.01
2024-05-09T18:31:18.333Z,27.05
2024-05-09T18:33:49.456Z,25.40
2024-05-09T18:36:20.666Z,25.45
2024-05-09T18:38:51.643Z,26.65
2024-05-09T18:41:22.593Z,24.08
2024-05-09T18:43:56.040Z,24.87
2024-05-09T18:46:27.545Z,26.07
2024-05-09T18:48:58.615Z,23.81
2024-05-09T18:51:29.647Z,25.97
2024-05-09T18:54:00.582Z,25.03
2024-05-09T18:56:31.570Z,25.40
2024-05-09T18:59:02.480Z,25.83
2024-05-09T19:01:33.752Z,26.11
2024-05-09T19:04:05.072Z,25.38
2024-05-09T19:06:37.637Z,24.91
2024-05-09T19:09:08.598Z,26.63
2024-05-09T19:11:40.087Z,24.12
2024-05-09T19:14:11.358Z,25.37
2024-05-09T19:16:42.381Z,25.49
2024-05-09T19:19:14.946Z,25.59
2024-05-09T19:21:46.128Z,27.60
2024-05-09T19:24:17.222Z,25.11
2024-05-09T19:26:49.027Z,26.02
2024-05-09T19:29:19.970Z,27.11
2024-05-09T19:31:50.964Z,26.43
2024-05-09T19:34:24.407Z,25.80
2024-05-09T19:36:55.650Z,28.03
2024-05-09T19:39:26.681Z,26.01
2024-05-09T19:41:57.630Z,26.51
2024-05-09T19:44:28.562Z,27.51
2024-05-09T19:46:59.564Z,27.68
2024-05-09T19:49:31.953Z,27.99
2024-05-09T19:52:03.005Z,25.88
2024-05-09T19:54:34.052Z,23.61
2024-05-09T19:57:05.138Z,24.44
2024-05-09T19:59:36.065Z,24.73
2024-05-09T20:02:07.241Z,25.30
2024-05-09T20:04:45.587Z,22.88
2024-05-09T20:07:16.825Z,22.03
2024-05-09T20:09:47.956Z,23.24
2024-05-09T20:12:18.920Z,23.32
2024-05-09T20:14:49.914Z,22.93
2024-05-09T20:17:20.828Z,24.46
2024-05-09T20:19:51.812Z,25.87
2024-05-09T20:22:22.884Z,26.27
2024-05-09T20:24:53.894Z,25.81
2024-05-09T20:27:24.981Z,26.62
2024-05-09T20:29:55.965Z,25.54
2024-05-09T20:32:27.000Z,28.57
2024-05-09T20:34:59.045Z,27.05
2024-05-09T20:37:30.031Z,29.09
2024-05-09T20:40:01.066Z,30.98
2024-05-09T20:42:32.017Z,28.99
2024-05-09T20:45:03.408Z,28.13
2024-05-09T20:47:34.445Z,27.99
2024-05-09T20:50:11.354Z,27.85
2024-05-09T20:52:47.304Z,29.56
2024-05-09T20:55:18.338Z,27.83
2024-05-09T20:57:49.370Z,28.80
2024-05-09T21:00:26.167Z,30.19
2024-05-09T21:03:05.720Z,28.77
2024-05-09T21:05:39.184Z,29.88
2024-05-09T21:08:10.655Z,29.91
2024-05-09T21:10:41.872Z,28.03
2024-05-09T21:13:13.492Z,28.32
2024-05-09T21:15:44.710Z,25.95
2024-05-09T21:18:15.759Z,26.47
2024-05-09T21:20:46.724Z,27.75
2024-05-09T21:23:17.679Z,27.72
2024-05-09T21:25:48.768Z,28.87
2024-05-09T21:28:19.848Z,30.11
2024-05-09T21:30:50.954Z,28.43
2024-05-09T21:33:22.180Z,29.37
2024-05-09T21:35:53.388Z,27.75
2024-05-09T21:38:24.337Z,26.46
2024-05-09T21:40:58.095Z,26.55
2024-05-09T21:43:31.443Z,27.33
2024-05-09T21:46:02.706Z,26.87
2024-05-09T21:48:34.092Z,27.36
2024-05-09T21:51:05.916Z,29.68
2024-05-09T21:53:37.892Z,25.89
2024-05-09T21:56:10.566Z,28.93
2024-05-09T21:58:41.532Z,24.35
2024-05-09T22:01:12.601Z,23.22
2024-05-09T22:03:43.701Z,24.17
2024-05-09T22:06:14.699Z,26.73
2024-05-09T22:08:45.634Z,26.26
2024-05-09T22:11:16.580Z,25.39
2024-05-09T22:13:49.832Z,25.60
2024-05-09T22:16:20.855Z,23.74
2024-05-09T22:18:51.915Z,24.30
2024-05-09T22:21:22.938Z,23.74
2024-05-09T22:23:54.480Z,25.17
2024-05-09T22:26:25.483Z,24.88
2024-05-09T22:28:56.458Z,23.63
2024-05-09T22:31:27.583Z,24.10
2024-05-09T22:33:58.852Z,24.28
2024-05-09T22:36:30.129Z,22.70
2024-05-09T22:39:01.084Z,24.02
2024-05-09T22:41:32.006Z,22.37
2024-05-09T22:44:02.933Z,21.70
2024-05-09T22:46:34.058Z,22.62
2024-05-09T22:49:05.428Z,20.57
2024-05-09T22:51:36.466Z,22.44
2024-05-09T22:54:07.743Z,24.63
2024-05-09T22:56:39.831Z,23.61
2024-05-09T22:59:10.884Z,23.83
2024-05-09T23:01:41.936Z,23.50
2024-05-09T23:04:13.004Z,23.24
2024-05-09T23:06:44.246Z,24.08
2024-05-09T23:09:15.268Z,21.62
2024-05-09T23:11:48.674Z,23.21
2024-05-09T23:14:19.646Z,21.09
2024-05-09T23:16:50.631Z,23.55
2024-05-09T23:19:21.694Z,24.07
2024-05-09T23:21:52.663Z,22.61
2024-05-09T23:24:23.623Z,24.39
2024-05-09T23:26:54.602Z,22.97
2024-05-09T23:29:25.588Z,23.41
2024-05-09T23:31:56.523Z,24.71
2024-05-09T23:34:27.756Z,23.94
2024-05-09T23:36:58.869Z,26.07
2024-05-09T23:39:29.842Z,25.87
2024-05-09T23:42:00.766Z,26.70
2024-05-09T23:44:31.720Z,26.63
2024-05-09T23:47:02.670Z,25.42
2024-05-09T23:49:33.796Z,26.59
2024-05-09T23:52:04.876Z,27.39
2024-05-09T23:54:35.932Z,27.03
2024-05-09T23:57:06.980Z,26.17
2024-05-09T23:59:37.973Z,27.77
